Time;durP1;ratioP1;P1;durP2;ratioP2;P2;SDS_P1;SDS_P2;PMS_P1;PMS_P2;Temp;Humidity;BMP_temperature;BMP_pressure;BME280_temperature;BME280_humidity;BME280_pressure;Samples;Min_cycle;Max_cycle;Signal;HPM_P1;HPM_P2
2021/12/03 00:02:12;;;;;;;2.17;1.15;;;;;;;;;;20996180;28;20135;-60
2021/12/03 00:12:14;;;;;;;3.65;1.23;;;;;;;;;;20996035;28;20057;-61
2021/12/03 00:22:17;;;;;;;3.10;1.23;;;;;;;;;;20995916;28;20048;-60
2021/12/03 00:32:19;;;;;;;2.45;1.27;;;;;;;;;;21003614;28;20076;-59
2021/12/03 00:42:21;;;;;;;2.38;1.30;;;;;;;;;;21010921;28;20044;-59
2021/12/03 00:52:23;;;;;;;2.33;1.10;;;;;;;;;;21010536;28;20059;-59
2021/12/03 01:02:25;;;;;;;1.90;1.23;;;;;;;;;;21009659;28;20079;-58
2021/12/03 01:12:27;;;;;;;1.70;1.00;;;;;;;;;;21008774;28;20048;-60
2021/12/03 01:22:30;;;;;;;3.75;1.20;;;;;;;;;;21009181;28;20048;-60
2021/12/03 01:32:32;;;;;;;4.47;1.13;;;;;;;;;;21007513;28;20105;-59
2021/12/03 01:42:34;;;;;;;2.13;0.90;;;;;;;;;;21005682;28;20098;-59
2021/12/03 01:52:36;;;;;;;2.42;1.00;;;;;;;;;;21006707;28;20480;-58
2021/12/03 02:02:38;;;;;;;2.17;0.90;;;;;;;;;;21005451;28;20045;-58
2021/12/03 02:12:41;;;;;;;4.10;1.50;;;;;;;;;;21004342;28;20065;-58
2021/12/03 02:22:45;;;;;;;3.63;0.77;;;;;;;;;;21003869;28;20124;-58
2021/12/03 02:32:49;;;;;;;1.88;0.93;;;;;;;;;;21002769;28;20052;-57
2021/12/03 02:42:52;;;;;;;1.33;0.60;;;;;;;;;;21002066;28;20124;-58
2021/12/03 02:52:55;;;;;;;2.90;0.95;;;;;;;;;;20999898;28;20053;-59
2021/12/03 03:02:58;;;;;;;3.83;0.90;;;;;;;;;;21000093;28;20047;-58
2021/12/03 03:13:01;;;;;;;1.95;0.70;;;;;;;;;;20999126;28;20055;-59
2021/12/03 03:23:06;;;;;;;1.17;0.60;;;;;;;;;;20998520;28;20048;-59
2021/12/03 03:33:10;;;;;;;1.85;0.85;;;;;;;;;;20997848;28;20155;-60
2021/12/03 03:43:14;;;;;;;4.60;1.35;;;;;;;;;;20997914;28;20446;-59
2021/12/03 03:53:16;;;;;;;1.00;0.60;;;;;;;;;;20997675;28;20500;-58
2021/12/03 04:03:19;;;;;;;2.72;0.93;;;;;;;;;;20995770;28;20040;-59
2021/12/03 04:13:21;;;;;;;1.45;0.90;;;;;;;;;;20995570;28;20052;-60
2021/12/03 04:23:28;;;;;;;2.47;1.05;;;;;;;;;;20995531;28;20439;-58
2021/12/03 04:33:33;;;;;;;1.43;0.77;;;;;;;;;;20993720;28;20141;-60
2021/12/03 04:43:36;;;;;;;1.02;0.60;;;;;;;;;;20994816;28;20044;-59
2021/12/03 04:53:39;;;;;;;2.63;0.80;;;;;;;;;;20994251;28;20059;-60
2021/12/03 05:03:42;;;;;;;14.05;5.72;;;;;;;;;;20993516;28;20083;-58
2021/12/03 05:13:45;;;;;;;5.22;1.50;;;;;;;;;;20992794;28;20507;-59
2021/12/03 05:23:46;;;;;;;3.63;0.88;;;;;;;;;;21006937;28;20489;-58
2021/12/03 05:33:48;;;;;;;1.30;0.60;;;;;;;;;;21007316;28;20060;-60
2021/12/03 05:43:50;;;;;;;3.28;0.80;;;;;;;;;;21006283;28;20083;-57
2021/12/03 05:53:52;;;;;;;3.03;0.90;;;;;;;;;;21006864;28;20051;-58
2021/12/03 06:03:53;;;;;;;1.38;0.60;;;;;;;;;;21005758;28;20045;-59
2021/12/03 06:13:56;;;;;;;1.52;0.80;;;;;;;;;;21002836;28;20182;-60
2021/12/03 06:23:57;;;;;;;3.97;1.38;;;;;;;;;;21005058;28;20052;-59
2021/12/03 06:33:59;;;;;;;3.00;0.80;;;;;;;;;;21002293;28;20106;-60
2021/12/03 06:44:02;;;;;;;1.88;0.95;;;;;;;;;;21001625;28;20492;-59
2021/12/03 06:54:05;;;;;;;5.65;1.23;;;;;;;;;;21001128;28;20131;-59
2021/12/03 07:04:07;;;;;;;8.05;4.30;;;;;;;;;;20999637;28;20048;-57
2021/12/03 07:14:09;;;;;;;5.80;2.00;;;;;;;;;;20998876;28;20095;-58
2021/12/03 07:24:13;;;;;;;5.07;2.55;;;;;;;;;;20998826;28;20044;-57
2021/12/03 07:34:16;;;;;;;7.25;2.08;;;;;;;;;;20997384;28;20045;-56
2021/12/03 07:44:17;;;;;;;5.10;2.15;;;;;;;;;;20995660;28;20047;-57
2021/12/03 07:54:19;;;;;;;9.23;3.60;;;;;;;;;;20996629;28;20044;-57
2021/12/03 08:04:21;;;;;;;11.23;4.50;;;;;;;;;;20997418;28;20444;-57
2021/12/03 08:14:22;;;;;;;8.98;2.53;;;;;;;;;;20995635;28;20455;-58
2021/12/03 08:24:24;;;;;;;7.65;2.88;;;;;;;;;;20994778;28;20110;-58
2021/12/03 08:34:26;;;;;;;6.13;2.47;;;;;;;;;;20994861;28;20053;-58
2021/12/03 08:44:28;;;;;;;7.57;2.10;;;;;;;;;;20993490;28;20131;-56
2021/12/03 09:04:52;;;;;;;10.48;1.90;;;;;;;;;;21009472;28;20062;-58
2021/12/03 09:14:58;;;;;;;10.50;2.75;;;;;;;;;;21009054;28;20067;-56
2021/12/03 09:25:01;;;;;;;8.13;3.20;;;;;;;;;;21007441;28;20091;-58
2021/12/03 09:35:04;;;;;;;5.40;3.40;;;;;;;;;;21006748;28;20052;-58
2021/12/03 09:45:09;;;;;;;5.03;1.85;;;;;;;;;;21006591;28;20485;-58
2021/12/03 09:55:14;;;;;;;5.30;2.10;;;;;;;;;;21005568;28;20084;-58
2021/12/03 10:15:48;;;;;;;6.82;1.98;;;;;;;;;;20999713;28;20496;-55
2021/12/03 11:28:37;;;;;;;5.18;2.70;;;;;;;;;;20996774;28;20497;-60
2021/12/03 15:10:59;;;;;;;2.15;0.90;;;;;;;;;;20995130;28;20469;-56
2021/12/03 15:31:37;;;;;;;5.30;2.83;;;;;;;;;;20995228;28;20478;-57
2021/12/03 16:23:29;;;;;;;6.97;2.90;;;;;;;;;;20970731;28;20482;-60
2021/12/03 16:43:43;;;;;;;5.40;2.40;;;;;;;;;;20914118;28;20083;-61
2021/12/03 16:53:48;;;;;;;5.25;3.40;;;;;;;;;;20924393;28;20490;-54
2021/12/03 17:04:12;;;;;;;11.18;3.60;;;;;;;;;;20922361;28;20098;-61
2021/12/03 18:06:05;;;;;;;12.15;4.80;;;;;;;;;;20917411;28;20076;-52
2021/12/03 18:57:07;;;;;;;6.57;4.60;;;;;;;;;;20914402;28;20080;-65
2021/12/03 19:07:21;;;;;;;8.13;4.47;;;;;;;;;;20913440;28;20470;-57
2021/12/03 19:17:25;;;;;;;11.03;4.50;;;;;;;;;;20912166;28;20102;-61
2021/12/03 19:27:27;;;;;;;5.93;2.80;;;;;;;;;;20911862;28;20041;-60
2021/12/03 19:37:30;;;;;;;11.70;4.00;;;;;;;;;;20911753;28;20049;-59
2021/12/03 19:47:47;;;;;;;8.07;4.68;;;;;;;;;;20913652;28;20068;-60
2021/12/03 19:57:49;;;;;;;10.68;5.07;;;;;;;;;;20914372;28;20554;-60
2021/12/03 20:07:53;;;;;;;13.15;6.63;;;;;;;;;;20926979;28;20052;-61
2021/12/03 20:18:24;;;;;;;9.80;5.35;;;;;;;;;;20926089;28;20161;-62
2021/12/03 20:28:25;;;;;;;10.20;5.87;;;;;;;;;;20925756;28;20056;-62
2021/12/03 20:38:29;;;;;;;10.23;6.22;;;;;;;;;;20922927;28;20045;-62
2021/12/03 21:09:08;;;;;;;8.52;5.13;;;;;;;;;;20923139;28;20187;-63
2021/12/03 21:29:26;;;;;;;12.95;6.95;;;;;;;;;;20922559;28;20041;-64
2021/12/03 21:49:39;;;;;;;9.25;5.20;;;;;;;;;;20919498;28;20554;-63
2021/12/03 21:59:41;;;;;;;9.00;6.00;;;;;;;;;;20917041;28;20052;-63
2021/12/03 22:09:43;;;;;;;8.15;5.15;;;;;;;;;;20918016;28;20047;-61
2021/12/03 22:19:45;;;;;;;12.80;6.47;;;;;;;;;;20917399;28;20052;-61
2021/12/03 22:29:47;;;;;;;8.18;4.55;;;;;;;;;;20915394;28;20068;-62
2021/12/03 22:39:49;;;;;;;9.52;5.90;;;;;;;;;;20915567;28;20064;-62
2021/12/03 22:59:53;;;;;;;13.98;8.98;;;;;;;;;;20921812;28;20044;-62
2021/12/03 23:09:55;;;;;;;17.38;8.25;;;;;;;;;;20916101;28;20053;-64
2021/12/03 23:19:57;;;;;;;14.57;8.15;;;;;;;;;;20915206;28;20053;-63
2021/12/03 23:30:00;;;;;;;12.93;5.50;;;;;;;;;;20914077;28;20120;-61
2021/12/03 23:40:06;;;;;;;10.55;5.18;;;;;;;;;;20913037;28;20045;-61
2021/12/03 23:50:09;;;;;;;7.65;5.03;;;;;;;;;;20912284;28;20558;-62
